createdAt,value
2018-12-09T00:00:52.055Z,0
2018-12-09T00:01:52.648Z,0
2018-12-09T00:02:54.098Z,0
2018-12-09T00:03:53.824Z,0
2018-12-09T00:04:54.421Z,0
2018-12-09T00:05:55.008Z,0
2018-12-09T00:06:55.604Z,0
2018-12-09T00:07:56.208Z,0
2018-12-09T00:08:56.796Z,0
2018-12-09T00:09:57.392Z,0
2018-12-09T00:10:57.980Z,0
2018-12-09T00:11:58.576Z,0
2018-12-09T00:12:59.177Z,0
2018-12-09T00:13:59.773Z,0
2018-12-09T00:15:00.372Z,0
2018-12-09T00:16:00.958Z,0
2018-12-09T00:17:01.544Z,0
2018-12-09T00:18:02.139Z,0
2018-12-09T00:19:02.731Z,0
2018-12-09T00:20:03.319Z,0
2018-12-09T00:21:03.917Z,0
2018-12-09T00:22:04.503Z,0
2018-12-09T00:23:05.092Z,0
2018-12-09T00:24:05.686Z,0
2018-12-09T00:25:06.274Z,0
2018-12-09T00:26:06.869Z,0
2018-12-09T00:27:07.462Z,0
2018-12-09T00:28:08.060Z,0
2018-12-09T00:29:08.654Z,0
2018-12-09T00:30:09.252Z,0
2018-12-09T00:31:09.838Z,0
2018-12-09T00:32:10.432Z,0
2018-12-09T00:33:11.024Z,0
2018-12-09T00:34:11.615Z,0
2018-12-09T00:35:12.201Z,0
2018-12-09T00:36:12.804Z,0
2018-12-09T00:37:13.398Z,0
2018-12-09T00:38:13.995Z,0
2018-12-09T00:39:14.586Z,0
2018-12-09T00:40:15.183Z,0
2018-12-09T00:41:15.771Z,0
2018-12-09T00:42:16.360Z,0
2018-12-09T00:43:16.951Z,0
2018-12-09T00:44:17.547Z,0
2018-12-09T00:45:18.141Z,0
2018-12-09T00:46:18.741Z,0
2018-12-09T00:47:19.324Z,0
2018-12-09T00:48:19.913Z,0
2018-12-09T00:49:20.508Z,0
2018-12-09T00:50:21.106Z,0
2018-12-09T00:51:21.702Z,0
2018-12-09T00:52:22.400Z,0
2018-12-09T00:53:22.883Z,0
2018-12-09T00:54:23.481Z,0
2018-12-09T00:55:24.074Z,0
2018-12-09T00:56:24.706Z,0
2018-12-09T00:57:25.255Z,0
2018-12-09T00:58:25.854Z,0
2018-12-09T00:59:26.441Z,0
2018-12-09T01:00:27.030Z,0
2018-12-09T01:01:27.642Z,0
2018-12-09T01:02:28.244Z,0
2018-12-09T01:03:28.826Z,0
2018-12-09T01:04:29.425Z,0
2018-12-09T01:05:30.020Z,0
2018-12-09T01:06:30.609Z,0
2018-12-09T01:07:31.202Z,0
2018-12-09T01:08:31.792Z,0
2018-12-09T01:09:32.387Z,0
2018-12-09T01:10:32.981Z,0
2018-12-09T01:11:33.570Z,0
2018-12-09T01:12:34.167Z,0
2018-12-09T01:13:34.764Z,0
2018-12-09T01:14:35.359Z,0
2018-12-09T01:15:35.956Z,0
2018-12-09T01:16:36.553Z,0
2018-12-09T01:17:37.148Z,0
2018-12-09T01:18:37.737Z,0
2018-12-09T01:19:38.331Z,0
2018-12-09T01:20:38.929Z,0
2018-12-09T01:21:39.528Z,0
2018-12-09T01:22:40.120Z,0
2018-12-09T01:23:40.716Z,0
2018-12-09T01:24:41.312Z,0
2018-12-09T01:25:41.909Z,0
2018-12-09T01:26:42.497Z,0
2018-12-09T01:27:43.091Z,0
2018-12-09T01:28:43.680Z,0
2018-12-09T01:29:44.282Z,0
2018-12-09T01:30:44.900Z,0
2018-12-09T01:31:45.473Z,0
2018-12-09T01:32:46.068Z,0
2018-12-09T01:33:46.657Z,0
2018-12-09T01:34:47.256Z,0
2018-12-09T01:35:47.847Z,0
2018-12-09T01:36:48.433Z,0
2018-12-09T01:37:49.033Z,0
2018-12-09T01:38:49.638Z,0
2018-12-09T01:39:50.215Z,0
2018-12-09T01:40:50.815Z,0
2018-12-09T01:41:51.418Z,0
2018-12-09T01:42:51.996Z,0
2018-12-09T01:43:52.618Z,0
2018-12-09T01:44:53.215Z,0
2018-12-09T01:45:53.786Z,0
2018-12-09T01:46:54.385Z,0
2018-12-09T01:47:54.978Z,0
2018-12-09T01:48:55.573Z,0
2018-12-09T01:49:56.169Z,0
2018-12-09T01:50:56.763Z,0
2018-12-09T01:51:57.355Z,0
2018-12-09T01:52:57.951Z,0
2018-12-09T01:53:58.539Z,0
2018-12-09T01:54:59.136Z,0
2018-12-09T01:55:59.729Z,0
2018-12-09T01:57:00.321Z,0
2018-12-09T01:58:00.915Z,0
2018-12-09T01:59:01.516Z,0
2018-12-09T02:00:02.119Z,0
2018-12-09T02:01:02.707Z,0
2018-12-09T02:02:03.302Z,0
2018-12-09T02:03:03.905Z,0
2018-12-09T02:04:04.499Z,0
2018-12-09T02:05:05.092Z,0
2018-12-09T02:06:05.683Z,0
2018-12-09T02:07:06.280Z,0
2018-12-09T02:08:06.869Z,0
2018-12-09T02:09:07.463Z,0
2018-12-09T02:10:08.057Z,0
2018-12-09T02:11:08.648Z,0
2018-12-09T02:12:09.244Z,0
2018-12-09T02:13:09.844Z,0
2018-12-09T02:14:10.426Z,0
2018-12-09T02:15:11.018Z,0
2018-12-09T02:16:11.607Z,0
2018-12-09T02:17:12.203Z,0
2018-12-09T02:18:12.790Z,0
2018-12-09T02:19:13.388Z,0
2018-12-09T02:20:13.982Z,0
2018-12-09T02:21:14.567Z,0
2018-12-09T02:22:15.154Z,0
2018-12-09T02:23:15.743Z,0
2018-12-09T02:24:16.340Z,0
2018-12-09T02:25:16.933Z,0
2018-12-09T02:26:17.530Z,0
2018-12-09T02:27:18.122Z,0
2018-12-09T02:28:18.723Z,0
2018-12-09T02:29:19.317Z,0
2018-12-09T02:30:19.915Z,0
2018-12-09T02:31:20.509Z,0
2018-12-09T02:32:21.103Z,0
2018-12-09T02:33:21.701Z,0
2018-12-09T02:34:22.299Z,0
2018-12-09T02:35:22.891Z,0
2018-12-09T02:36:23.480Z,0
2018-12-09T02:37:24.084Z,0
2018-12-09T02:38:24.662Z,0
2018-12-09T02:39:25.263Z,0
2018-12-09T02:40:25.855Z,0
2018-12-09T02:41:26.449Z,0
2018-12-09T02:42:27.039Z,0
2018-12-09T02:43:27.639Z,0
2018-12-09T02:44:28.279Z,0
2018-12-09T02:45:28.813Z,0
2018-12-09T02:46:29.405Z,0
2018-12-09T02:47:30.001Z,0
2018-12-09T02:48:30.671Z,0
2018-12-09T02:49:31.253Z,0
2018-12-09T02:50:31.854Z,0
2018-12-09T02:51:32.443Z,0
2018-12-09T02:52:33.148Z,0
2018-12-09T02:53:33.635Z,0
2018-12-09T02:54:34.229Z,0
2018-12-09T02:55:34.826Z,0
2018-12-09T02:56:35.421Z,0
2018-12-09T02:57:36.005Z,0
2018-12-09T02:58:36.602Z,0
2018-12-09T02:59:37.192Z,0
2018-12-09T03:00:37.788Z,0
2018-12-09T03:01:38.385Z,0
2018-12-09T03:02:38.972Z,0
2018-12-09T03:03:39.566Z,0
2018-12-09T03:04:40.167Z,0
2018-12-09T03:05:40.759Z,0
2018-12-09T03:06:41.346Z,0
2018-12-09T03:07:41.939Z,0
2018-12-09T03:08:42.526Z,0
2018-12-09T03:09:43.122Z,0
2018-12-09T03:10:43.717Z,0
2018-12-09T03:11:44.311Z,0
2018-12-09T03:12:44.909Z,0
2018-12-09T03:13:45.496Z,0
2018-12-09T03:14:46.090Z,0
2018-12-09T03:15:46.682Z,0
2018-12-09T03:16:47.275Z,0
2018-12-09T03:17:47.868Z,0
2018-12-09T03:18:48.467Z,0
2018-12-09T03:19:49.052Z,0
2018-12-09T03:20:49.648Z,0
2018-12-09T03:21:50.240Z,0
2018-12-09T03:22:50.829Z,0
2018-12-09T03:23:51.418Z,0
2018-12-09T03:24:52.013Z,0
2018-12-09T03:25:52.601Z,0
2018-12-09T03:26:55.047Z,0
2018-12-09T03:27:53.782Z,0
2018-12-09T03:28:54.367Z,0
2018-12-09T03:29:54.955Z,0
2018-12-09T03:30:55.552Z,0
2018-12-09T03:31:56.453Z,0
2018-12-09T03:32:57.043Z,0
2018-12-09T03:33:57.636Z,0
2018-12-09T03:34:58.233Z,0
2018-12-09T03:35:58.831Z,0
2018-12-09T03:36:59.417Z,0
2018-12-09T03:38:00.013Z,0
2018-12-09T03:39:00.603Z,0
2018-12-09T03:40:01.190Z,0
2018-12-09T03:41:01.786Z,0
2018-12-09T03:42:02.571Z,0
2018-12-09T03:43:03.160Z,0
2018-12-09T03:44:03.756Z,0
2018-12-09T03:45:04.349Z,0
2018-12-09T03:46:04.951Z,0
2018-12-09T03:47:05.544Z,0
2018-12-09T03:48:06.141Z,0
2018-12-09T03:49:06.736Z,0
2018-12-09T03:50:07.327Z,0
2018-12-09T03:51:07.913Z,0
2018-12-09T03:52:08.498Z,0
2018-12-09T03:53:09.092Z,0
2018-12-09T03:54:09.687Z,0
2018-12-09T03:55:10.283Z,0
2018-12-09T03:56:10.888Z,0
2018-12-09T03:57:11.480Z,0
2018-12-09T03:58:12.075Z,0
2018-12-09T03:59:12.661Z,0
2018-12-09T04:00:13.257Z,0
2018-12-09T04:01:13.845Z,0
2018-12-09T04:02:14.442Z,0
2018-12-09T04:03:15.244Z,0
2018-12-09T04:04:15.815Z,0
2018-12-09T04:05:16.406Z,0
2018-12-09T04:06:17.002Z,0
2018-12-09T04:07:17.587Z,0
2018-12-09T04:08:18.182Z,0
2018-12-09T04:09:18.800Z,0
2018-12-09T04:10:19.355Z,0
2018-12-09T04:11:19.949Z,0
2018-12-09T04:12:20.542Z,0
2018-12-09T04:13:21.129Z,0
2018-12-09T04:14:21.727Z,0
2018-12-09T04:15:22.313Z,0
2018-12-09T04:16:22.906Z,0
2018-12-09T04:17:23.502Z,0
2018-12-09T04:18:24.100Z,0
2018-12-09T04:19:24.696Z,0
2018-12-09T04:20:25.279Z,0
2018-12-09T04:21:25.867Z,0
2018-12-09T04:22:26.462Z,0
2018-12-09T04:23:27.053Z,0
2018-12-09T04:24:27.651Z,0
2018-12-09T04:25:28.245Z,0
2018-12-09T04:26:28.834Z,0
2018-12-09T04:27:29.423Z,0
2018-12-09T04:28:30.016Z,0
2018-12-09T04:29:30.612Z,0
2018-12-09T04:30:31.200Z,0
2018-12-09T04:31:31.815Z,0
2018-12-09T04:32:32.383Z,0
2018-12-09T04:33:32.977Z,0
2018-12-09T04:34:33.576Z,0
2018-12-09T04:35:34.159Z,0
2018-12-09T04:36:34.755Z,0
2018-12-09T04:37:35.349Z,0
2018-12-09T04:38:35.951Z,0
2018-12-09T04:39:36.545Z,0
2018-12-09T04:40:37.131Z,0
2018-12-09T04:41:37.719Z,0
2018-12-09T04:42:38.458Z,0
2018-12-09T04:43:38.913Z,0
2018-12-09T04:44:39.495Z,0
2018-12-09T04:45:40.090Z,0
2018-12-09T04:46:40.677Z,0
2018-12-09T04:47:41.275Z,0
2018-12-09T04:48:41.871Z,0
2018-12-09T04:49:42.468Z,0
2018-12-09T04:50:43.063Z,0
2018-12-09T04:51:43.664Z,0
2018-12-09T04:52:44.248Z,0
2018-12-09T04:53:44.844Z,0
2018-12-09T04:54:45.441Z,0
2018-12-09T04:55:46.048Z,0
2018-12-09T04:56:46.631Z,0
2018-12-09T04:57:47.229Z,0
2018-12-09T04:58:47.812Z,0
2018-12-09T04:59:48.400Z,0
2018-12-09T05:00:48.996Z,0
2018-12-09T05:01:49.593Z,0
2018-12-09T05:02:50.187Z,0
2018-12-09T05:03:50.775Z,0
2018-12-09T05:04:51.361Z,0
2018-12-09T05:05:51.952Z,0
2018-12-09T05:06:52.545Z,0
2018-12-09T05:07:53.141Z,0
2018-12-09T05:08:53.735Z,0
2018-12-09T05:09:54.330Z,0
2018-12-09T05:10:54.922Z,0
2018-12-09T05:11:55.513Z,0
2018-12-09T05:12:57.360Z,0
2018-12-09T05:13:56.700Z,0
2018-12-09T05:14:57.287Z,0
2018-12-09T05:15:57.877Z,0
2018-12-09T05:16:58.477Z,0
2018-12-09T05:17:59.065Z,0
2018-12-09T05:18:59.654Z,0
2018-12-09T05:20:00.249Z,0
2018-12-09T05:21:00.843Z,0
2018-12-09T05:22:01.442Z,0
2018-12-09T05:23:02.035Z,0
2018-12-09T05:24:02.631Z,0
2018-12-09T05:25:03.227Z,0
2018-12-09T05:26:03.819Z,0
2018-12-09T05:27:04.414Z,0
2018-12-09T05:28:05.006Z,0
2018-12-09T05:29:05.594Z,0
2018-12-09T05:30:06.182Z,0
2018-12-09T05:31:06.777Z,0
2018-12-09T05:32:07.408Z,0
2018-12-09T05:33:07.969Z,0
2018-12-09T05:34:08.559Z,0
2018-12-09T05:35:09.148Z,0
2018-12-09T05:36:09.735Z,0
2018-12-09T05:37:10.322Z,0
2018-12-09T05:38:10.917Z,0
2018-12-09T05:39:11.514Z,0
2018-12-09T05:40:12.148Z,0
2018-12-09T05:41:12.704Z,0
2018-12-09T05:42:13.291Z,0
2018-12-09T05:43:13.886Z,0
2018-12-09T05:44:14.486Z,0
2018-12-09T05:45:15.078Z,0
2018-12-09T05:46:15.671Z,0
2018-12-09T05:47:16.264Z,0
2018-12-09T05:48:16.858Z,0
2018-12-09T05:49:17.446Z,0
2018-12-09T05:50:18.041Z,0
2018-12-09T05:51:18.637Z,0
2018-12-09T05:52:19.328Z,0
2018-12-09T05:53:19.814Z,0
2018-12-09T05:54:20.409Z,0
2018-12-09T05:55:21.008Z,0
2018-12-09T05:56:21.605Z,0
2018-12-09T05:57:22.204Z,0
2018-12-09T05:58:22.799Z,0
2018-12-09T05:59:23.398Z,0
2018-12-09T06:00:23.988Z,0
2018-12-09T06:01:24.575Z,0
2018-12-09T06:02:25.171Z,0
2018-12-09T06:03:25.769Z,0
2018-12-09T06:04:26.364Z,0
2018-12-09T06:05:26.957Z,0
2018-12-09T06:06:27.553Z,0
2018-12-09T06:07:28.426Z,0
2018-12-09T06:08:29.033Z,0
2018-12-09T06:09:29.628Z,0
2018-12-09T06:10:30.248Z,0
2018-12-09T06:11:30.836Z,0
2018-12-09T06:12:31.413Z,0
2018-12-09T06:13:32.012Z,0
2018-12-09T06:14:32.606Z,0
2018-12-09T06:15:33.199Z,0
2018-12-09T06:16:33.785Z,0
2018-12-09T06:17:34.373Z,0
2018-12-09T06:18:34.969Z,0
2018-12-09T06:19:35.558Z,0
2018-12-09T06:20:36.152Z,0
2018-12-09T06:21:36.748Z,0
2018-12-09T06:22:37.344Z,0
2018-12-09T06:23:37.932Z,0
2018-12-09T06:24:38.531Z,0
2018-12-09T06:25:39.114Z,0
2018-12-09T06:26:39.713Z,0
2018-12-09T06:27:40.550Z,0
2018-12-09T06:28:41.142Z,0
2018-12-09T06:29:41.740Z,0
2018-12-09T06:30:42.333Z,0
2018-12-09T06:31:42.928Z,0
2018-12-09T06:32:43.516Z,0
2018-12-09T06:33:44.109Z,0
2018-12-09T06:34:44.706Z,0
2018-12-09T06:35:45.302Z,0
2018-12-09T06:36:45.900Z,0
2018-12-09T06:37:46.685Z,0
2018-12-09T06:38:47.279Z,0
2018-12-09T06:39:47.877Z,0
2018-12-09T06:40:48.474Z,0
2018-12-09T06:41:49.067Z,0
2018-12-09T06:42:49.668Z,0
2018-12-09T06:43:50.263Z,0
2018-12-09T06:44:50.849Z,0
2018-12-09T06:45:51.448Z,0
2018-12-09T06:46:52.044Z,0
2018-12-09T06:47:52.636Z,0
2018-12-09T06:48:53.230Z,0
2018-12-09T06:49:53.824Z,4
2018-12-09T06:50:54.422Z,0
2018-12-09T06:51:55.015Z,4
2018-12-09T06:52:55.601Z,4
2018-12-09T06:53:56.196Z,4
2018-12-09T06:54:56.798Z,4
2018-12-09T06:55:57.387Z,4
2018-12-09T06:56:57.988Z,4
2018-12-09T06:57:58.749Z,4
2018-12-09T06:58:59.345Z,8
2018-12-09T06:59:59.949Z,8
2018-12-09T07:01:00.536Z,8
2018-12-09T07:02:01.123Z,12
2018-12-09T07:03:01.710Z,16
2018-12-09T07:04:02.308Z,20
2018-12-09T07:05:02.903Z,24
2018-12-09T07:06:03.499Z,32
2018-12-09T07:07:04.097Z,48
2018-12-09T07:08:04.705Z,56
2018-12-09T07:09:05.292Z,64
2018-12-09T07:10:05.888Z,76
2018-12-09T07:11:06.477Z,76
2018-12-09T07:12:07.071Z,72
2018-12-09T07:13:07.662Z,60
2018-12-09T07:14:08.326Z,56
2018-12-09T07:15:08.836Z,64
2018-12-09T07:16:09.459Z,68
2018-12-09T07:17:10.048Z,96
2018-12-09T07:18:10.650Z,128
2018-12-09T07:19:11.245Z,156
2018-12-09T07:20:11.858Z,184
2018-12-09T07:21:12.445Z,192
2018-12-09T07:22:13.039Z,200
2018-12-09T07:23:13.634Z,204
2018-12-09T07:24:14.229Z,196
2018-12-09T07:25:14.828Z,204
2018-12-09T07:26:15.424Z,256
2018-12-09T07:27:16.205Z,296
2018-12-09T07:28:16.802Z,332
2018-12-09T07:29:17.410Z,316
2018-12-09T07:30:17.994Z,352
2018-12-09T07:31:18.592Z,380
2018-12-09T07:32:19.212Z,424
2018-12-09T07:33:19.782Z,492
2018-12-09T07:34:20.382Z,528
2018-12-09T07:35:20.984Z,552
2018-12-09T07:36:21.584Z,628
2018-12-09T07:37:22.179Z,760
2018-12-09T07:38:22.781Z,860
2018-12-09T07:39:23.392Z,828
2018-12-09T07:40:23.979Z,828
2018-12-09T07:41:24.571Z,828
2018-12-09T07:42:25.177Z,748
2018-12-09T07:43:25.773Z,648
2018-12-09T07:44:26.375Z,608
2018-12-09T07:45:26.969Z,648
2018-12-09T07:46:27.559Z,636
2018-12-09T07:47:28.154Z,636
2018-12-09T07:48:28.765Z,672
2018-12-09T07:49:29.343Z,680
2018-12-09T07:50:29.944Z,768
2018-12-09T07:51:30.542Z,812
2018-12-09T07:52:31.148Z,824
2018-12-09T07:53:31.740Z,768
2018-12-09T07:54:32.341Z,852
2018-12-09T07:55:32.946Z,892
2018-12-09T07:56:33.545Z,1152
2018-12-09T07:57:34.149Z,1372
2018-12-09T07:58:34.749Z,1544
2018-12-09T07:59:35.349Z,1488
2018-12-09T08:00:35.950Z,1484
2018-12-09T08:01:36.549Z,1564
2018-12-09T08:02:37.146Z,1640
2018-12-09T08:03:37.749Z,1860
2018-12-09T08:04:38.349Z,1624
2018-12-09T08:05:38.951Z,1592
2018-12-09T08:06:39.551Z,1652
2018-12-09T08:07:40.151Z,1516
2018-12-09T08:08:40.746Z,1552
2018-12-09T08:09:41.345Z,1648
2018-12-09T08:10:41.935Z,1692
2018-12-09T08:11:42.539Z,1628
2018-12-09T08:12:43.153Z,1456
2018-12-09T08:13:43.741Z,1328
2018-12-09T08:14:44.346Z,1476
2018-12-09T08:15:44.947Z,1704
2018-12-09T08:16:45.546Z,1756
2018-12-09T08:17:46.140Z,1456
2018-12-09T08:18:46.738Z,1156
2018-12-09T08:19:47.334Z,1148
2018-12-09T08:20:47.934Z,1304
2018-12-09T08:21:48.532Z,1556
2018-12-09T08:22:49.133Z,1808
2018-12-09T08:23:49.724Z,1708
2018-12-09T08:24:50.325Z,1328
2018-12-09T08:25:50.926Z,1088
2018-12-09T08:26:51.525Z,1128
2018-12-09T08:27:52.123Z,1192
2018-12-09T08:28:52.718Z,1228
2018-12-09T08:29:53.321Z,1136
2018-12-09T08:30:53.921Z,1272
2018-12-09T08:31:54.522Z,1228
2018-12-09T08:32:55.125Z,1120
2018-12-09T08:33:55.727Z,1092
2018-12-09T08:34:56.319Z,1124
2018-12-09T08:35:56.911Z,1044
2018-12-09T08:36:57.504Z,996
2018-12-09T08:37:58.101Z,1176
2018-12-09T08:38:58.697Z,1676
2018-12-09T08:39:59.288Z,1956
2018-12-09T08:40:59.879Z,2112
2018-12-09T08:42:00.479Z,2336
2018-12-09T08:43:01.078Z,2672
2018-12-09T08:44:01.682Z,3036
2018-12-09T08:45:02.279Z,3428
2018-12-09T08:46:02.878Z,3764
2018-12-09T08:47:03.488Z,3928
2018-12-09T08:48:04.081Z,3952
2018-12-09T08:49:04.683Z,3932
2018-12-09T08:50:05.284Z,3836
2018-12-09T08:51:05.876Z,3492
2018-12-09T08:52:06.465Z,2788
2018-12-09T08:53:07.060Z,2412
2018-12-09T08:54:07.664Z,2520
2018-12-09T08:55:08.258Z,2772
2018-12-09T08:56:08.861Z,3304
2018-12-09T08:57:09.460Z,3120
2018-12-09T08:58:10.058Z,3348
2018-12-09T08:59:10.654Z,4816
2018-12-09T09:00:11.257Z,5832
2018-12-09T09:01:11.858Z,6336
2018-12-09T09:02:12.462Z,6336
2018-12-09T09:03:13.055Z,6132
2018-12-09T09:04:13.657Z,6080
2018-12-09T09:05:14.259Z,6336
2018-12-09T09:06:14.860Z,6624
2018-12-09T09:07:15.465Z,6672
2018-12-09T09:08:16.066Z,6520
2018-12-09T09:09:16.667Z,6076
2018-12-09T09:10:17.263Z,5272
2018-12-09T09:11:17.860Z,4948
2018-12-09T09:12:18.461Z,4888
2018-12-09T09:13:19.062Z,4828
2018-12-09T09:14:19.665Z,4428
2018-12-09T09:15:20.266Z,3640
2018-12-09T09:16:20.865Z,3044
2018-12-09T09:17:21.470Z,3260
2018-12-09T09:18:22.072Z,3168
2018-12-09T09:19:22.682Z,2800
2018-12-09T09:20:23.270Z,2712
2018-12-09T09:21:23.878Z,3024
2018-12-09T09:22:24.479Z,3548
2018-12-09T09:23:25.078Z,3692
2018-12-09T09:24:25.679Z,3636
2018-12-09T09:25:26.278Z,3436
2018-12-09T09:26:26.876Z,2776
2018-12-09T09:27:27.472Z,3000
2018-12-09T09:28:28.068Z,3012
2018-12-09T09:29:28.670Z,2668
2018-12-09T09:30:29.260Z,2604
2018-12-09T09:31:29.856Z,3412
2018-12-09T09:32:30.453Z,3804
2018-12-09T09:33:31.053Z,4116
2018-12-09T09:34:31.643Z,4928
2018-12-09T09:35:32.248Z,5484
2018-12-09T09:36:32.844Z,5536
2018-12-09T09:37:33.447Z,5280
2018-12-09T09:38:34.038Z,5352
2018-12-09T09:39:34.648Z,5544
2018-12-09T09:40:35.233Z,4372
2018-12-09T09:41:35.828Z,5168
2018-12-09T09:42:36.426Z,4720
2018-12-09T09:43:37.019Z,5768
2018-12-09T09:44:37.620Z,6268
2018-12-09T09:45:38.222Z,7184
2018-12-09T09:46:38.831Z,7408
2018-12-09T09:47:39.428Z,6572
2018-12-09T09:48:40.028Z,6888
2018-12-09T09:49:40.631Z,7204
2018-12-09T09:50:41.232Z,6796
2018-12-09T09:51:41.832Z,6004
2018-12-09T09:52:42.438Z,5056
2018-12-09T09:53:43.050Z,4308
2018-12-09T09:54:43.637Z,3768
2018-12-09T09:55:44.237Z,3320
2018-12-09T09:56:44.835Z,2868
2018-12-09T09:57:45.428Z,2280
2018-12-09T09:58:46.029Z,1628
2018-12-09T09:59:46.631Z,1208
2018-12-09T10:00:47.223Z,1056
2018-12-09T10:01:47.824Z,1008
2018-12-09T10:02:48.427Z,1000
2018-12-09T10:03:49.022Z,972
2018-12-09T10:04:49.615Z,924
2018-12-09T10:05:50.205Z,900
2018-12-09T10:06:50.802Z,920
2018-12-09T10:07:51.402Z,888
2018-12-09T10:08:51.991Z,928
2018-12-09T10:09:52.582Z,1028
2018-12-09T10:10:53.204Z,1112
2018-12-09T10:11:53.788Z,1064
2018-12-09T10:12:54.382Z,1028
2018-12-09T10:13:54.981Z,960
2018-12-09T10:14:55.580Z,916
2018-12-09T10:15:56.185Z,904
2018-12-09T10:16:56.787Z,820
2018-12-09T10:17:57.383Z,700
2018-12-09T10:18:57.985Z,628
2018-12-09T10:19:58.586Z,564
2018-12-09T10:20:59.188Z,516
2018-12-09T10:21:59.786Z,504
2018-12-09T10:23:00.379Z,516
2018-12-09T10:24:00.965Z,536
2018-12-09T10:25:01.553Z,536
2018-12-09T10:26:02.146Z,552
2018-12-09T10:27:02.736Z,592
2018-12-09T10:28:03.332Z,736
2018-12-09T10:29:03.932Z,920
2018-12-09T10:30:04.528Z,1140
2018-12-09T10:31:05.128Z,1768
2018-12-09T10:32:05.727Z,2564
2018-12-09T10:33:06.326Z,3756
2018-12-09T10:34:06.915Z,4968
2018-12-09T10:35:07.507Z,5112
2018-12-09T10:36:08.106Z,4924
2018-12-09T10:37:08.709Z,5284
2018-12-09T10:38:09.306Z,6020
2018-12-09T10:39:09.904Z,6976
2018-12-09T10:40:10.501Z,8512
2018-12-09T10:41:11.096Z,9584
2018-12-09T10:42:11.693Z,9984
2018-12-09T10:43:12.297Z,10032
2018-12-09T10:44:12.899Z,9580
2018-12-09T10:45:13.492Z,9516
2018-12-09T10:46:14.096Z,8664
2018-12-09T10:47:14.693Z,7036
2018-12-09T10:48:15.285Z,5844
2018-12-09T10:49:15.885Z,5732
2018-12-09T10:50:16.480Z,6160
2018-12-09T10:51:17.069Z,6260
2018-12-09T10:52:17.674Z,5124
2018-12-09T10:53:18.262Z,3952
2018-12-09T10:54:18.885Z,3408
2018-12-09T10:55:19.460Z,3332
2018-12-09T10:56:20.061Z,3500
2018-12-09T10:57:20.663Z,3972
2018-12-09T10:58:21.286Z,5000
2018-12-09T10:59:21.854Z,5800
2018-12-09T11:00:22.455Z,5752
2018-12-09T11:01:23.045Z,5900
2018-12-09T11:02:23.647Z,6020
2018-12-09T11:03:24.247Z,5848
2018-12-09T11:04:24.849Z,5492
2018-12-09T11:05:25.460Z,5108
2018-12-09T11:06:26.049Z,4316
2018-12-09T11:07:26.696Z,3140
2018-12-09T11:08:27.238Z,2328
2018-12-09T11:09:27.839Z,2184
2018-12-09T11:10:28.429Z,2388
2018-12-09T11:11:29.020Z,2980
2018-12-09T11:12:29.613Z,4188
2018-12-09T11:13:30.206Z,4916
2018-12-09T11:14:30.796Z,5028
2018-12-09T11:15:31.400Z,5908
2018-12-09T11:16:31.999Z,6156
2018-12-09T11:17:32.590Z,5784
2018-12-09T11:18:33.183Z,4908
2018-12-09T11:19:33.781Z,3640
2018-12-09T11:20:34.380Z,3068
2018-12-09T11:21:34.983Z,2884
2018-12-09T11:22:35.570Z,3072
2018-12-09T11:23:36.165Z,3324
2018-12-09T11:24:36.763Z,3496
2018-12-09T11:25:37.363Z,3452
2018-12-09T11:26:37.966Z,3564
2018-12-09T11:27:38.568Z,3584
2018-12-09T11:28:39.167Z,3808
2018-12-09T11:29:39.769Z,4024
2018-12-09T11:30:40.360Z,3944
2018-12-09T11:31:40.958Z,4260
2018-12-09T11:32:41.556Z,4536
2018-12-09T11:33:42.158Z,4904
2018-12-09T11:34:42.756Z,5112
2018-12-09T11:35:43.355Z,5280
2018-12-09T11:36:43.949Z,5236
2018-12-09T11:37:44.540Z,5152
2018-12-09T11:38:45.132Z,5072
2018-12-09T11:39:45.735Z,4972
2018-12-09T11:40:46.336Z,4908
2018-12-09T11:41:46.942Z,4852
2018-12-09T11:42:47.532Z,4808
2018-12-09T11:43:48.121Z,4716
2018-12-09T11:44:48.715Z,4472
2018-12-09T11:45:49.314Z,4392
2018-12-09T11:46:49.919Z,4116
2018-12-09T11:47:50.511Z,3832
2018-12-09T11:48:51.108Z,4144
2018-12-09T11:49:51.713Z,4020
2018-12-09T11:50:52.315Z,4280
2018-12-09T11:51:52.917Z,4516
2018-12-09T11:52:53.506Z,4516
2018-12-09T11:53:54.111Z,4584
2018-12-09T11:54:54.713Z,4776
2018-12-09T11:55:55.312Z,5912
2018-12-09T11:56:55.910Z,7360
2018-12-09T11:57:56.512Z,8852
2018-12-09T11:58:57.113Z,10132
2018-12-09T11:59:57.715Z,11784
2018-12-09T12:00:58.336Z,13536
2018-12-09T12:01:58.918Z,14060
2018-12-09T12:02:59.523Z,14788
2018-12-09T12:04:00.124Z,16000
2018-12-09T12:05:00.719Z,16100
2018-12-09T12:06:01.312Z,16116
2018-12-09T12:07:01.916Z,14648
2018-12-09T12:08:02.516Z,13528
2018-12-09T12:09:03.111Z,13272
2018-12-09T12:10:03.717Z,11836
2018-12-09T12:11:04.318Z,11244
2018-12-09T12:12:04.921Z,11704
2018-12-09T12:13:05.525Z,12920
2018-12-09T12:14:06.128Z,14640
2018-12-09T12:15:06.732Z,16056
2018-12-09T12:16:07.336Z,13892
2018-12-09T12:17:07.935Z,10592
2018-12-09T12:18:08.534Z,8340
2018-12-09T12:19:09.135Z,8276
2018-12-09T12:20:09.733Z,8436
2018-12-09T12:21:10.334Z,9476
2018-12-09T12:22:10.928Z,10460
2018-12-09T12:23:11.535Z,10452
2018-12-09T12:24:12.142Z,9680
2018-12-09T12:25:12.738Z,8948
2018-12-09T12:26:13.334Z,9668
2018-12-09T12:27:13.938Z,11008
2018-12-09T12:28:14.538Z,11384
2018-12-09T12:29:15.142Z,11740
2018-12-09T12:30:15.748Z,11940
2018-12-09T12:31:16.351Z,12532
2018-12-09T12:32:16.942Z,11464
2018-12-09T12:33:17.542Z,10512
2018-12-09T12:34:18.139Z,11448
2018-12-09T12:35:18.748Z,13104
2018-12-09T12:36:19.346Z,12824
2018-12-09T12:37:19.949Z,12148
2018-12-09T12:38:20.554Z,12968
2018-12-09T12:39:21.158Z,13572
2018-12-09T12:40:21.763Z,14648
2018-12-09T12:41:22.363Z,17664
2018-12-09T12:42:22.968Z,21376
2018-12-09T12:43:23.571Z,22752
2018-12-09T12:44:24.166Z,21600
2018-12-09T12:45:24.774Z,21280
2018-12-09T12:46:25.366Z,21952
2018-12-09T12:47:25.962Z,22304
2018-12-09T12:48:26.582Z,20128
2018-12-09T12:49:27.177Z,14736
2018-12-09T12:50:27.814Z,10388
2018-12-09T12:51:28.405Z,8592
2018-12-09T12:52:29.008Z,6404
2018-12-09T12:53:29.608Z,4148
2018-12-09T12:54:30.200Z,3140
2018-12-09T12:55:30.792Z,2504
2018-12-09T12:56:31.386Z,2404
2018-12-09T12:57:31.981Z,2712
2018-12-09T12:58:32.608Z,2904
2018-12-09T12:59:33.175Z,2892
2018-12-09T13:00:33.788Z,2088
2018-12-09T13:01:34.380Z,1524
2018-12-09T13:02:34.984Z,1396
2018-12-09T13:03:35.587Z,1008
2018-12-09T13:04:36.182Z,924
2018-12-09T13:05:36.782Z,1168
2018-12-09T13:06:37.383Z,1136
2018-12-09T13:07:37.985Z,968
2018-12-09T13:08:38.583Z,588
2018-12-09T13:09:39.175Z,572
2018-12-09T13:10:39.789Z,628
2018-12-09T13:11:40.374Z,432
2018-12-09T13:12:40.964Z,372
2018-12-09T13:13:41.561Z,616
2018-12-09T13:14:42.155Z,1156
2018-12-09T13:15:42.748Z,1428
2018-12-09T13:16:43.346Z,1736
2018-12-09T13:17:43.947Z,1924
2018-12-09T13:18:44.546Z,2112
2018-12-09T13:19:45.150Z,2656
2018-12-09T13:20:45.754Z,3280
2018-12-09T13:21:46.352Z,3504
2018-12-09T13:22:46.935Z,3340
2018-12-09T13:23:47.636Z,3844
2018-12-09T13:24:48.154Z,4824
2018-12-09T13:25:48.750Z,6204
2018-12-09T13:26:49.342Z,5944
2018-12-09T13:27:49.946Z,5368
2018-12-09T13:28:50.541Z,5076
2018-12-09T13:29:51.148Z,4812
2018-12-09T13:30:51.743Z,5548
2018-12-09T13:31:52.345Z,6148
2018-12-09T13:32:52.970Z,6416
2018-12-09T13:33:53.537Z,6080
2018-12-09T13:34:54.130Z,5508
2018-12-09T13:35:54.746Z,5132
2018-12-09T13:36:55.331Z,4244
2018-12-09T13:37:55.935Z,3856
2018-12-09T13:38:56.545Z,3996
2018-12-09T13:39:57.137Z,4476
2018-12-09T13:40:57.728Z,4876
2018-12-09T13:41:58.322Z,4664
2018-12-09T13:42:58.922Z,5320
2018-12-09T13:43:59.531Z,5700
2018-12-09T13:45:00.141Z,5700
2018-12-09T13:46:00.742Z,5316
2018-12-09T13:47:01.340Z,5176
2018-12-09T13:48:01.932Z,5172
2018-12-09T13:49:02.534Z,5608
2018-12-09T13:50:03.126Z,5732
2018-12-09T13:51:03.729Z,5416
2018-12-09T13:52:04.332Z,5332
2018-12-09T13:53:04.935Z,5708
2018-12-09T13:54:05.534Z,6056
2018-12-09T13:55:06.137Z,6596
2018-12-09T13:56:06.737Z,6708
2018-12-09T13:57:07.334Z,5940
2018-12-09T13:58:07.940Z,4092
2018-12-09T13:59:08.546Z,3908
2018-12-09T14:00:09.147Z,5852
2018-12-09T14:01:09.752Z,6004
2018-12-09T14:02:10.392Z,6360
2018-12-09T14:03:10.989Z,5880
2018-12-09T14:04:11.583Z,5216
2018-12-09T14:05:12.184Z,4560
2018-12-09T14:06:12.783Z,3676
2018-12-09T14:07:13.378Z,2764
2018-12-09T14:08:13.981Z,2524
2018-12-09T14:09:14.579Z,2484
2018-12-09T14:10:15.170Z,2420
2018-12-09T14:11:15.772Z,2352